| time (UTC) | temp F | wind direction | speed MPH | gust MPH | rain 1hr in | rain 24hr in | rain mn in | humidity % | barometer mb |
| 20260508081539 | 54 | 263 | 5.0 | 8.0 | 0.00 | 0.00 | 0.00 | 46 | 1007.2 |
| 20260508080042 | 54 | 258 | 6.0 | 9.0 | 0.00 | 0.00 | 0.00 | 45 | 1007.1 |
| 20260508074539 | 54 | 247 | 5.0 | 8.0 | 0.00 | 0.00 | 0.00 | 46 | 1007.1 |
| 20260508073018 | 54 | 247 | 4.0 | 7.0 | 0.00 | 0.00 | 0.00 | 46 | 1007.1 |
| 20260508071510 | 55 | 248 | 4.0 | 8.0 | 0.00 | 0.00 | 0.00 | 45 | 1007.1 |
| 20260508070059 | 56 | 252 | 3.0 | 5.0 | 0.00 | 0.00 | 0.00 | 45 | 1007.1 |
| 20260508064556 | 56 | 254 | 3.0 | 5.0 | 0.00 | 0.00 | 0.00 | 43 | 1007.2 |
| 20260508063056 | 57 | 252 | 3.0 | 7.0 | 0.00 | 0.00 | 0.00 | 43 | 1007.1 |
| 20260508061550 | 57 | 263 | 4.0 | 9.0 | 0.00 | 0.00 | 0.00 | 43 | 1007.2 |
| 20260508060036 | 57 | 327 | 2.0 | 8.0 | 0.00 | 0.00 | 0.00 | 42 | 1007.2 |
| 20260508054527 | 57 | 237 | 3.0 | 7.0 | 0.00 | 0.00 | 0.00 | 42 | 1007.2 |
| 20260508053122 | 57 | 232 | 2.0 | 4.0 | 0.00 | 0.00 | 0.00 | 42 | 1007.0 |
| 20260508051510 | 58 | 232 | 3.0 | 6.0 | 0.00 | 0.00 | 0.00 | 41 | 1006.9 |
| 20260508050004 | 58 | 232 | 2.0 | 5.0 | 0.00 | 0.00 | 0.00 | 41 | 1007.0 |
| 20260508044558 | 58 | 232 | 3.0 | 6.0 | 0.00 | 0.00 | 0.00 | 41 | 1006.9 |
| 20260508043103 | 58 | 227 | 3.0 | 6.0 | 0.00 | 0.00 | 0.00 | 43 | 1006.7 |
| 20260508041610 | 57 | 220 | 3.0 | 5.0 | 0.00 | 0.00 | 0.00 | 42 | 1006.8 |
| 20260508040043 | 57 | 236 | 2.0 | 5.0 | 0.00 | 0.00 | 0.00 | 43 | 1006.7 |
| 20260508034533 | 58 | 238 | 2.0 | 4.0 | 0.00 | 0.00 | 0.00 | 43 | 1006.7 |
| 20260508033026 | 59 | 238 | 1.0 | 4.0 | 0.00 | 0.00 | 0.00 | 44 | 1006.5 |
| 20260508031535 | 60 | 238 | 2.0 | 7.0 | 0.00 | 0.00 | 0.00 | 42 | 1006.3 |
| 20260508030035 | 61 | 262 | 3.0 | 6.0 | 0.00 | 0.00 | 0.00 | 41 | 1006.2 |
| 20260508024522 | 64 | 266 | 0.0 | 4.0 | 0.00 | 0.00 | 0.00 | 39 | 1006.1 |
| 20260508023022 | 66 | 336 | 1.0 | 2.0 | 0.00 | 0.00 | 0.00 | 35 | 1006.0 |
| 20260508021514 | 68 | 336 | 0.0 | 2.0 | 0.00 | 0.00 | 0.00 | 34 | 1006.0 |
| 20260508020020 | 70 | 336 | 2.0 | 5.0 | 0.00 | 0.00 | 0.00 | 30 | 1006.0 |
| 20260508014506 | 72 | 336 | 3.0 | 6.0 | 0.00 | 0.00 | 0.00 | 26 | 1005.9 |
| 20260508013059 | 73 | 336 | 0.0 | 4.0 | 0.00 | 0.00 | 0.00 | 26 | 1005.9 |
| 20260508011556 | 73 | 330 | 2.0 | 6.0 | 0.00 | 0.00 | 0.00 | 25 | 1006.0 |
| 20260508010049 | 72 | 25 | 2.0 | 5.0 | 0.00 | 0.00 | 0.00 | 28 | 1006.0 |
| 20260508004510 | 72 | 302 | 0.0 | 6.0 | 0.00 | 0.00 | 0.00 | 27 | 1006.2 |
| 20260508003009 | 72 | 267 | 3.0 | 8.0 | 0.00 | 0.00 | 0.00 | 25 | 1006.5 |
| 20260508001559 | 74 | 287 | 2.0 | 9.0 | 0.00 | 0.00 | 0.00 | 26 | 1006.7 |
| 20260508000059 | 74 | 270 | 2.0 | 6.0 | 0.00 | 0.00 | 0.00 | 24 | 1007.0 |
| 20260507234550 | 76 | 272 | 6.0 | 12.0 | 0.00 | 0.00 | 0.00 | 23 | 1007.0 |
| 20260507233056 | 76 | 155 | 4.0 | 13.0 | 0.00 | 0.00 | 0.00 | 24 | 1007.2 |
| 20260507231537 | 76 | 255 | 6.0 | 14.0 | 0.00 | 0.00 | 0.00 | 24 | 1007.3 |
| 20260507230022 | 75 | 313 | 8.0 | 13.0 | 0.00 | 0.00 | 0.00 | 26 | 1007.7 |
| 20260507224522 | 74 | 360 | 3.0 | 9.0 | 0.00 | 0.00 | 0.00 | 28 | 1007.9 |
| 20260507223012 | 75 | 9 | 7.0 | 12.0 | 0.00 | 0.00 | 0.00 | 27 | 1008.1 |
| 20260507221510 | 75 | 34 | 5.0 | 13.0 | 0.00 | 0.00 | 0.00 | 26 | 1008.2 |
| 20260507220001 | 76 | 5 | 6.0 | 14.0 | 0.00 | 0.00 | 0.00 | 25 | 1008.5 |
| 20260507214605 | 77 | 360 | 9.0 | 13.0 | 0.00 | 0.00 | 0.00 | 23 | 1008.7 |
| 20260507213102 | 78 | 360 | 2.0 | 8.0 | 0.00 | 0.00 | 0.00 | 23 | 1008.9 |
| 20260507211540 | 78 | 34 | 2.0 | 10.0 | 0.00 | 0.00 | 0.00 | 23 | 1009.1 |
| 20260507210029 | 76 | 165 | 1.0 | 6.0 | 0.00 | 0.00 | 0.00 | 28 | 1009.6 |
| 20260507204521 | 75 | 33 | 2.0 | 9.0 | 0.00 | 0.00 | 0.00 | 27 | 1009.8 |
| 20260507203008 | 74 | 193 | 0.0 | 5.0 | 0.00 | 0.00 | 0.00 | 24 | 1010.0 |
| 20260507201600 | 73 | 48 | 2.0 | 7.0 | 0.00 | 0.00 | 0.00 | 30 | 1010.3 |
| 20260507200058 | 73 | 65 | 1.0 | 4.0 | 0.00 | 0.00 | 0.00 | 29 | 1010.4 |
| 20260507194615 | 73 | 101 | 1.0 | 8.0 | 0.00 | 0.00 | 0.00 | 24 | 1010.6 |
| 20260507193042 | 73 | 141 | 8.0 | 12.0 | 0.00 | 0.00 | 0.00 | 28 | 1010.8 |
| 20260507191533 | 71 | 147 | 7.0 | 13.0 | 0.00 | 0.00 | 0.00 | 26 | 1011.1 |
| 20260507190106 | 69 | 157 | 11.0 | 19.0 | 0.00 | 0.00 | 0.00 | 27 | 1011.4 |
| 20260507184501 | 67 | 178 | 12.0 | 18.0 | 0.00 | 0.00 | 0.00 | 29 | 1011.4 |
| 20260507183035 | 65 | 117 | 13.0 | 19.0 | 0.00 | 0.00 | 0.00 | 28 | 1011.8 |
| 20260507181510 | 64 | 132 | 12.0 | 21.0 | 0.00 | 0.00 | 0.00 | 28 | 1012.0 |
| 20260507174558 | 63 | 155 | 15.0 | 25.0 | 0.00 | 0.00 | 0.00 | 28 | 1012.2 |
| 20260507173119 | 62 | 159 | 12.0 | 24.0 | 0.00 | 0.00 | 0.00 | 27 | 1012.2 |
| 20260507171546 | 62 | 167 | 19.0 | 29.0 | 0.00 | 0.00 | 0.00 | 27 | 1012.3 |
| 20260507170030 | 61 | 182 | 17.0 | 28.0 | 0.00 | 0.00 | 0.00 | 30 | 1012.4 |
| 20260507164531 | 60 | 170 | 15.0 | 29.0 | 0.00 | 0.00 | 0.00 | 31 | 1012.4 |
| 20260507163019 | 60 | 166 | 17.0 | 29.0 | 0.00 | 0.00 | 0.00 | 27 | 1012.5 |
| 20260507161515 | 59 | 175 | 18.0 | 35.0 | 0.00 | 0.00 | 0.00 | 29 | 1012.6 |
| 20260507160014 | 59 | 183 | 14.0 | 22.0 | 0.00 | 0.00 | 0.00 | 29 | 1012.7 |
| 20260507154502 | 58 | 178 | 17.0 | 25.0 | 0.00 | 0.00 | 0.00 | 31 | 1012.6 |
| 20260507153057 | 57 | 162 | 17.0 | 27.0 | 0.00 | 0.00 | 0.00 | 34 | 1012.8 |
| 20260507151540 | 56 | 184 | 18.0 | 30.0 | 0.00 | 0.00 | 0.00 | 33 | 1012.9 |
| 20260507150037 | 55 | 192 | 18.0 | 29.0 | 0.00 | 0.00 | 0.00 | 35 | 1012.9 |
| 20260507144531 | 54 | 167 | 15.0 | 26.0 | 0.00 | 0.00 | 0.00 | 38 | 1012.9 |
| 20260507143021 | 54 | 169 | 14.0 | 21.0 | 0.00 | 0.00 | 0.00 | 38 | 1013.0 |
| 20260507141506 | 53 | 169 | 13.0 | 22.0 | 0.00 | 0.00 | 0.00 | 40 | 1013.0 |
| 20260507140059 | 53 | 150 | 15.0 | 25.0 | 0.00 | 0.00 | 0.00 | 40 | 1013.0 |
| 20260507134602 | 52 | 144 | 13.0 | 28.0 | 0.00 | 0.00 | 0.00 | 40 | 1013.1 |
| 20260507133106 | 51 | 159 | 11.0 | 19.0 | 0.00 | 0.00 | 0.00 | 39 | 1013.1 |
| 20260507133002 | 51 | 173 | 13.0 | 20.0 | 0.00 | 0.00 | 0.00 | 38 | 1013.1 |
| 20260507131549 | 50 | 154 | 10.0 | 20.0 | 0.00 | 0.00 | 0.00 | 39 | 1013.1 |
| 20260507130039 | 49 | 186 | 7.0 | 15.0 | 0.00 | 0.00 | 0.00 | 39 | 1013.0 |
| 20260507124530 | 49 | 196 | 7.0 | 16.0 | 0.00 | 0.00 | 0.00 | 39 | 1013.1 |
| 20260507123029 | 49 | 194 | 8.0 | 17.0 | 0.00 | 0.00 | 0.00 | 39 | 1013.1 |
| 20260507121519 | 48 | 202 | 8.0 | 12.0 | 0.00 | 0.00 | 0.00 | 41 | 1013.1 |
| 20260507120035 | 48 | 190 | 8.0 | 15.0 | 0.00 | 0.00 | 0.00 | 42 | 1013.0 |
| 20260507114508 | 48 | 202 | 7.0 | 12.0 | 0.00 | 0.00 | 0.00 | 42 | 1013.0 |
| 20260507113026 | 49 | 198 | 6.0 | 9.0 | 0.00 | 0.00 | 0.00 | 39 | 1013.1 |
| 20260507111558 | 49 | 189 | 8.0 | 13.0 | 0.00 | 0.00 | 0.00 | 39 | 1013.4 |
| 20260507110054 | 49 | 186 | 5.0 | 12.0 | 0.00 | 0.00 | 0.00 | 40 | 1013.5 |
| 20260507104540 | 49 | 181 | 6.0 | 12.0 | 0.00 | 0.00 | 0.00 | 41 | 1013.6 |
| 20260507103033 | 49 | 163 | 9.0 | 15.0 | 0.00 | 0.00 | 0.00 | 40 | 1013.6 |
| 20260507101522 | 49 | 186 | 7.0 | 15.0 | 0.00 | 0.00 | 0.00 | 41 | 1013.6 |
| 20260507100010 | 49 | 183 | 8.0 | 15.0 | 0.00 | 0.00 | 0.00 | 41 | 1013.6 |
| 20260507094600 | 48 | 184 | 7.0 | 12.0 | 0.00 | 0.00 | 0.00 | 43 | 1013.8 |
| 20260507093057 | 49 | 171 | 7.0 | 14.0 | 0.00 | 0.00 | 0.00 | 43 | 1014.1 |
| 20260507091548 | 49 | 182 | 9.0 | 14.0 | 0.00 | 0.00 | 0.00 | 43 | 1014.1 |
| 20260507090038 | 48 | 180 | 8.0 | 12.0 | 0.00 | 0.00 | 0.00 | 43 | 1014.2 |
| 20260507084528 | 48 | 168 | 6.0 | 10.0 | 0.00 | 0.14 | 0.00 | 43 | 1014.3 |
| 20260507083021 | 48 | 179 | 6.0 | 11.0 | 0.00 | 0.14 | 0.00 | 43 | 1014.5 |